createdAt,value
2018-06-02T00:02:21.174Z,19.28
2018-06-02T00:04:48.740Z,19.13
2018-06-02T00:07:16.307Z,19.25
2018-06-02T00:09:43.874Z,19.03
2018-06-02T00:12:11.471Z,19.13
2018-06-02T00:14:39.041Z,19.10
2018-06-02T00:17:06.626Z,19.11
2018-06-02T00:19:34.186Z,19.08
2018-06-02T00:22:01.751Z,19.06
2018-06-02T00:24:29.337Z,18.97
2018-06-02T00:26:56.898Z,18.88
2018-06-02T00:29:24.464Z,18.71
2018-06-02T00:31:52.035Z,18.79
2018-06-02T00:34:19.613Z,18.61
2018-06-02T00:36:47.183Z,18.46
2018-06-02T00:39:14.751Z,18.26
2018-06-02T00:41:42.330Z,18.12
2018-06-02T00:44:09.903Z,18.21
2018-06-02T00:46:37.477Z,18.17
2018-06-02T00:49:05.054Z,18.00
2018-06-02T00:51:32.624Z,17.97
2018-06-02T00:54:00.194Z,17.85
2018-06-02T00:56:27.772Z,17.81
2018-06-02T00:58:55.336Z,18.05
2018-06-02T01:01:22.955Z,18.12
2018-06-02T01:03:50.525Z,18.10
2018-06-02T01:06:18.093Z,17.89
2018-06-02T01:08:45.693Z,17.75
2018-06-02T01:11:13.262Z,17.68
2018-06-02T01:13:40.839Z,17.61
2018-06-02T01:16:08.418Z,17.89
2018-06-02T01:18:35.991Z,17.88
2018-06-02T01:21:03.586Z,18.05
2018-06-02T01:23:31.154Z,17.87
2018-06-02T01:25:58.734Z,18.07
2018-06-02T01:28:26.317Z,17.97
2018-06-02T01:30:53.890Z,18.05
2018-06-02T01:33:21.461Z,17.75
2018-06-02T01:35:49.045Z,17.80
2018-06-02T01:38:16.641Z,17.53
2018-06-02T01:40:44.208Z,17.52
2018-06-02T01:43:11.776Z,17.40
2018-06-02T01:45:39.364Z,17.54
2018-06-02T01:48:06.941Z,17.46
2018-06-02T01:50:34.503Z,17.38
2018-06-02T01:53:02.070Z,17.54
2018-06-02T01:55:29.637Z,17.33
2018-06-02T01:57:57.215Z,17.18
2018-06-02T02:00:24.774Z,17.33
2018-06-02T02:02:52.350Z,17.29
2018-06-02T02:05:19.913Z,17.41
2018-06-02T02:07:47.513Z,17.36
2018-06-02T02:10:15.083Z,17.39
2018-06-02T02:12:42.654Z,17.25
2018-06-02T02:15:10.243Z,17.32
2018-06-02T02:17:37.813Z,17.12
2018-06-02T02:20:05.375Z,17.07
2018-06-02T02:22:32.946Z,16.98
2018-06-02T02:25:00.512Z,16.97
2018-06-02T02:27:28.090Z,17.03
2018-06-02T02:29:55.662Z,17.00
2018-06-02T02:32:23.237Z,17.05
2018-06-02T02:34:50.811Z,17.24
2018-06-02T02:37:18.386Z,17.31
2018-06-02T02:39:45.950Z,17.32
2018-06-02T02:42:13.521Z,17.40
2018-06-02T02:44:41.082Z,17.47
2018-06-02T02:47:08.667Z,17.57
2018-06-02T02:49:36.246Z,17.66
2018-06-02T02:52:03.821Z,17.83
2018-06-02T02:54:31.392Z,17.89
2018-06-02T02:56:58.956Z,17.94
2018-06-02T02:59:26.616Z,17.90
2018-06-02T03:01:54.186Z,17.98
2018-06-02T03:04:21.758Z,17.83
2018-06-02T03:06:49.338Z,17.75
2018-06-02T03:09:16.908Z,17.73
2018-06-02T03:11:44.471Z,17.63
2018-06-02T03:14:12.057Z,17.59
2018-06-02T03:16:39.623Z,17.65
2018-06-02T03:19:07.194Z,17.52
2018-06-02T03:21:34.801Z,17.52
2018-06-02T03:24:02.390Z,17.46
2018-06-02T03:26:29.958Z,17.63
2018-06-02T03:28:57.524Z,17.50
2018-06-02T03:31:25.087Z,17.58
2018-06-02T03:33:52.648Z,17.47
2018-06-02T03:36:20.224Z,17.58
2018-06-02T03:38:47.794Z,17.71
2018-06-02T03:41:15.362Z,17.80
2018-06-02T03:43:42.931Z,17.72
2018-06-02T03:46:10.637Z,17.41
2018-06-02T03:48:38.215Z,17.45
2018-06-02T03:51:05.787Z,17.49
2018-06-02T03:53:33.363Z,17.61
2018-06-02T03:56:00.930Z,18.09
2018-06-02T03:58:28.497Z,18.46
2018-06-02T04:00:56.070Z,18.74
2018-06-02T04:03:23.630Z,18.91
2018-06-02T04:05:51.200Z,18.90
2018-06-02T04:08:18.762Z,18.92
2018-06-02T04:10:46.334Z,18.72
2018-06-02T04:13:13.901Z,19.15
2018-06-02T04:15:41.479Z,19.23
2018-06-02T04:18:09.048Z,19.38
2018-06-02T04:20:36.650Z,19.38
2018-06-02T04:23:04.328Z,19.46
2018-06-02T04:25:31.902Z,19.63
2018-06-02T04:27:59.491Z,19.83
2018-06-02T04:30:27.062Z,19.80
2018-06-02T04:32:54.628Z,19.76
2018-06-02T04:35:22.191Z,19.90
2018-06-02T04:37:49.759Z,20.15
2018-06-02T04:40:17.326Z,20.11
2018-06-02T04:42:44.894Z,19.97
2018-06-02T04:45:12.459Z,20.19
2018-06-02T04:47:40.027Z,20.16
2018-06-02T04:50:07.594Z,20.18
2018-06-02T04:52:35.169Z,20.32
2018-06-02T04:55:02.751Z,20.34
2018-06-02T04:57:30.327Z,20.26
2018-06-02T04:59:57.895Z,20.52
2018-06-02T05:02:25.475Z,20.49
2018-06-02T05:04:53.042Z,20.52
2018-06-02T05:07:20.624Z,20.33
2018-06-02T05:09:48.188Z,20.44
2018-06-02T05:12:15.752Z,20.57
2018-06-02T05:14:43.316Z,20.48
2018-06-02T05:17:10.888Z,20.40
2018-06-02T05:19:38.465Z,20.20
2018-06-02T05:22:06.030Z,19.89
2018-06-02T05:24:33.601Z,19.99
2018-06-02T05:27:01.183Z,19.80
2018-06-02T05:29:28.755Z,19.79
2018-06-02T05:31:56.321Z,19.77
2018-06-02T05:34:23.916Z,19.80
2018-06-02T05:36:51.491Z,19.74
2018-06-02T05:39:19.055Z,19.38
2018-06-02T05:41:46.623Z,19.56
2018-06-02T05:44:14.193Z,19.71
2018-06-02T05:46:41.770Z,19.83
2018-06-02T05:49:09.345Z,19.80
2018-06-02T05:51:36.909Z,19.65
2018-06-02T05:54:04.483Z,19.44
2018-06-02T05:56:32.055Z,19.49
2018-06-02T05:58:59.623Z,19.65
2018-06-02T06:01:27.318Z,19.51
2018-06-02T06:03:54.908Z,19.52
2018-06-02T06:06:22.471Z,19.52
2018-06-02T06:08:50.049Z,19.52
2018-06-02T06:11:17.614Z,19.43
2018-06-02T06:13:45.178Z,19.54
2018-06-02T06:16:12.764Z,19.47
2018-06-02T06:18:40.326Z,19.46
2018-06-02T06:21:07.901Z,19.41
2018-06-02T06:23:35.471Z,19.35
2018-06-02T06:26:03.051Z,19.34
2018-06-02T06:28:30.642Z,19.57
2018-06-02T06:30:58.271Z,19.47
2018-06-02T06:33:25.893Z,19.44
2018-06-02T06:35:53.471Z,19.21
2018-06-02T06:38:21.126Z,19.16
2018-06-02T06:40:48.726Z,19.15
2018-06-02T06:43:16.312Z,19.01
2018-06-02T06:45:43.900Z,19.00
2018-06-02T06:48:11.740Z,18.64
2018-06-02T06:50:39.377Z,19.17
2018-06-02T06:53:06.921Z,18.89
2018-06-02T06:55:34.501Z,19.01
2018-06-02T06:58:02.071Z,19.25
2018-06-02T07:00:29.653Z,19.47
2018-06-02T07:02:57.315Z,19.14
2018-06-02T07:05:24.894Z,19.15
2018-06-02T07:07:52.463Z,19.16
2018-06-02T07:10:20.039Z,19.01
2018-06-02T07:12:47.632Z,19.26
2018-06-02T07:15:15.211Z,19.08
2018-06-02T07:17:42.803Z,19.17
2018-06-02T07:20:10.392Z,19.28
2018-06-02T07:22:37.959Z,19.13
2018-06-02T07:25:05.559Z,19.12
2018-06-02T07:27:33.163Z,19.02
2018-06-02T07:30:00.794Z,19.05
2018-06-02T07:32:28.367Z,19.20
2018-06-02T07:34:55.952Z,19.34
2018-06-02T07:37:23.525Z,19.05
2018-06-02T07:39:52.026Z,19.23
2018-06-02T07:42:19.619Z,19.22
2018-06-02T07:44:47.201Z,19.39
2018-06-02T07:47:14.815Z,19.35
2018-06-02T07:49:42.412Z,19.34
2018-06-02T07:52:10.021Z,19.30
2018-06-02T07:54:37.615Z,19.26
2018-06-02T07:57:05.246Z,19.25
2018-06-02T07:59:32.820Z,19.28
2018-06-02T08:02:00.406Z,19.21
2018-06-02T08:04:27.995Z,19.25
2018-06-02T08:06:55.568Z,19.24
2018-06-02T08:09:23.144Z,19.19
2018-06-02T08:11:50.739Z,19.13
2018-06-02T08:14:18.318Z,19.28
2018-06-02T08:16:45.898Z,19.34
2018-06-02T08:19:13.483Z,19.30
2018-06-02T08:21:41.066Z,19.32
2018-06-02T08:24:08.651Z,19.31
2018-06-02T08:26:36.258Z,19.30
2018-06-02T08:29:03.851Z,19.26
2018-06-02T08:31:31.431Z,19.17
2018-06-02T08:33:58.998Z,19.29
2018-06-02T08:36:26.592Z,19.48
2018-06-02T08:38:54.185Z,19.50
2018-06-02T08:41:21.758Z,19.55
2018-06-02T08:43:49.332Z,19.52
2018-06-02T08:46:16.931Z,19.57
2018-06-02T08:48:44.515Z,19.32
2018-06-02T08:51:12.094Z,19.36
2018-06-02T08:53:39.702Z,19.52
2018-06-02T08:56:07.270Z,19.48
2018-06-02T08:58:34.841Z,19.43
2018-06-02T09:01:02.410Z,19.40
2018-06-02T09:03:29.975Z,19.57
2018-06-02T09:05:57.539Z,19.54
2018-06-02T09:08:25.115Z,19.51
2018-06-02T09:10:52.674Z,19.34
2018-06-02T09:13:20.244Z,19.82
2018-06-02T09:15:47.815Z,19.79
2018-06-02T09:18:15.412Z,19.74
2018-06-02T09:20:42.995Z,19.75
2018-06-02T09:23:10.558Z,19.77
2018-06-02T09:25:38.124Z,19.82
2018-06-02T09:28:05.694Z,19.87
2018-06-02T09:30:33.266Z,19.80
2018-06-02T09:33:00.835Z,19.84
2018-06-02T09:35:28.406Z,19.87
2018-06-02T09:37:55.973Z,19.84
2018-06-02T09:40:23.554Z,19.91
2018-06-02T09:42:51.127Z,19.92
2018-06-02T09:45:18.695Z,19.95
2018-06-02T09:47:46.290Z,19.94
2018-06-02T09:50:13.854Z,20.03
2018-06-02T09:52:41.445Z,20.03
2018-06-02T09:55:09.008Z,20.06
2018-06-02T09:57:36.577Z,20.15
2018-06-02T10:00:04.214Z,20.09
2018-06-02T10:02:31.781Z,20.17
2018-06-02T10:04:59.349Z,20.23
2018-06-02T10:07:26.936Z,20.20
2018-06-02T10:09:54.537Z,20.14
2018-06-02T10:12:22.100Z,20.21
2018-06-02T10:14:49.672Z,20.29
2018-06-02T10:17:17.244Z,20.22
2018-06-02T10:19:44.815Z,20.22
2018-06-02T10:22:12.387Z,20.24
2018-06-02T10:24:39.950Z,20.34
2018-06-02T10:27:07.548Z,20.26
2018-06-02T10:29:35.167Z,20.35
2018-06-02T10:32:02.759Z,20.43
2018-06-02T10:34:30.347Z,20.42
2018-06-02T10:36:57.924Z,20.43
2018-06-02T10:39:25.505Z,20.45
2018-06-02T10:41:53.085Z,20.52
2018-06-02T10:44:20.698Z,20.43
2018-06-02T10:46:48.280Z,20.51
2018-06-02T10:49:15.860Z,20.68
2018-06-02T10:51:43.445Z,20.69
2018-06-02T10:54:11.048Z,20.76
2018-06-02T10:56:38.631Z,20.71
2018-06-02T10:59:06.303Z,20.80
2018-06-02T11:01:33.900Z,20.78
2018-06-02T11:04:01.490Z,20.89
2018-06-02T11:06:29.216Z,20.89
2018-06-02T11:08:56.839Z,20.75
2018-06-02T11:11:24.418Z,20.84
2018-06-02T11:13:52.042Z,20.98
2018-06-02T11:16:19.610Z,20.96
2018-06-02T11:18:47.186Z,20.97
2018-06-02T11:21:14.818Z,20.97
2018-06-02T11:23:42.403Z,20.91
2018-06-02T11:26:09.982Z,20.90
2018-06-02T11:28:37.572Z,20.94
2018-06-02T11:31:05.188Z,21.07
2018-06-02T11:33:32.771Z,21.16
2018-06-02T11:36:00.350Z,21.04
2018-06-02T11:38:27.943Z,21.15
2018-06-02T11:40:55.534Z,21.07
2018-06-02T11:43:23.150Z,21.06
2018-06-02T11:45:50.751Z,21.21
2018-06-02T11:48:18.327Z,21.32
2018-06-02T11:50:45.961Z,21.17
2018-06-02T11:53:13.543Z,21.28
2018-06-02T11:55:41.139Z,21.20
2018-06-02T11:58:08.725Z,21.27
2018-06-02T12:00:36.298Z,21.20
2018-06-02T12:03:03.896Z,21.22
2018-06-02T12:05:31.511Z,21.27
2018-06-02T12:07:59.103Z,21.53
2018-06-02T12:10:26.694Z,21.51
2018-06-02T12:12:54.285Z,21.49
2018-06-02T12:15:21.866Z,21.58
2018-06-02T12:17:49.439Z,21.61
2018-06-02T12:20:17.019Z,21.59
2018-06-02T12:22:44.595Z,21.58
2018-06-02T12:25:12.179Z,21.57
2018-06-02T12:27:39.763Z,21.62
2018-06-02T12:30:07.339Z,21.54
2018-06-02T12:32:34.924Z,21.70
2018-06-02T12:35:02.525Z,21.83
2018-06-02T12:37:30.139Z,21.76
2018-06-02T12:39:57.712Z,21.69
2018-06-02T12:42:25.298Z,21.58
2018-06-02T12:44:52.866Z,21.65
2018-06-02T12:47:20.425Z,21.79
2018-06-02T12:49:48.007Z,21.80
2018-06-02T12:52:15.576Z,21.82
2018-06-02T12:54:43.162Z,21.97
2018-06-02T12:57:10.730Z,21.92
2018-06-02T12:59:38.311Z,21.95
2018-06-02T13:02:05.907Z,21.87
2018-06-02T13:04:33.505Z,22.13
2018-06-02T13:07:01.102Z,22.16
2018-06-02T13:09:28.712Z,21.69
2018-06-02T13:11:56.298Z,21.64
2018-06-02T13:14:23.894Z,21.82
2018-06-02T13:16:51.483Z,21.84
2018-06-02T13:19:19.087Z,22.04
2018-06-02T13:21:46.684Z,22.06
2018-06-02T13:24:14.270Z,22.03
2018-06-02T13:26:41.862Z,22.23
2018-06-02T13:29:09.433Z,22.15
2018-06-02T13:31:37.043Z,22.34
2018-06-02T13:34:04.767Z,22.25
2018-06-02T13:36:32.354Z,22.16
2018-06-02T13:38:59.969Z,22.25
2018-06-02T13:41:27.538Z,22.22
2018-06-02T13:43:55.138Z,22.32
2018-06-02T13:46:22.709Z,22.52
2018-06-02T13:48:50.330Z,22.36
2018-06-02T13:51:17.977Z,22.23
2018-06-02T13:53:45.550Z,22.53
2018-06-02T13:56:13.878Z,22.55
2018-06-02T13:58:41.464Z,22.42
2018-06-02T14:01:09.240Z,22.46
2018-06-02T14:03:36.856Z,22.57
2018-06-02T14:06:04.474Z,22.51
2018-06-02T14:08:32.084Z,22.60
2018-06-02T14:10:59.749Z,22.48
2018-06-02T14:13:27.331Z,22.43
2018-06-02T14:15:54.912Z,22.54
2018-06-02T14:18:22.490Z,22.33
2018-06-02T14:20:50.085Z,22.13
2018-06-02T14:23:17.680Z,22.36
2018-06-02T14:25:46.709Z,22.44
2018-06-02T14:28:14.306Z,22.27
2018-06-02T14:30:42.912Z,22.39
2018-06-02T14:33:10.510Z,22.85
2018-06-02T14:35:38.106Z,22.62
2018-06-02T14:38:05.868Z,22.57
2018-06-02T14:40:33.469Z,22.71
2018-06-02T14:43:01.067Z,22.56
2018-06-02T14:45:28.647Z,22.40
2018-06-02T14:47:56.211Z,22.78
2018-06-02T14:50:23.828Z,22.81
2018-06-02T14:52:51.433Z,22.75
2018-06-02T14:55:19.034Z,23.14
2018-06-02T14:57:46.634Z,22.68
2018-06-02T15:00:14.253Z,22.88
2018-06-02T15:02:41.826Z,22.87
2018-06-02T15:05:09.409Z,23.03
2018-06-02T15:07:36.994Z,23.00
2018-06-02T15:10:04.576Z,22.56
2018-06-02T15:12:32.163Z,22.54
2018-06-02T15:14:59.771Z,22.85
2018-06-02T15:17:27.379Z,23.06
2018-06-02T15:19:55.865Z,23.11
2018-06-02T15:22:23.466Z,22.94
2018-06-02T15:24:51.162Z,22.92
2018-06-02T15:27:18.703Z,22.92
2018-06-02T15:29:46.293Z,23.03
2018-06-02T15:32:13.918Z,22.82
2018-06-02T15:34:41.518Z,22.81
2018-06-02T15:37:09.089Z,23.04
2018-06-02T15:39:36.679Z,22.97
2018-06-02T15:42:04.358Z,22.87
2018-06-02T15:44:31.942Z,22.94
2018-06-02T15:46:59.535Z,23.04
2018-06-02T15:49:27.119Z,22.98
2018-06-02T15:51:54.715Z,23.02
2018-06-02T15:54:22.314Z,23.00
2018-06-02T15:56:49.909Z,23.03
2018-06-02T15:59:17.531Z,22.94
2018-06-02T16:01:45.172Z,22.90
2018-06-02T16:04:12.789Z,22.85
2018-06-02T16:06:40.384Z,22.93
2018-06-02T16:09:07.977Z,23.07
2018-06-02T16:11:35.582Z,23.12
2018-06-02T16:14:03.181Z,23.14
2018-06-02T16:16:30.779Z,23.34
2018-06-02T16:18:58.363Z,23.31
2018-06-02T16:21:25.948Z,23.30
2018-06-02T16:23:53.558Z,23.16
2018-06-02T16:26:21.162Z,23.25
2018-06-02T16:28:48.766Z,23.28
2018-06-02T16:31:16.386Z,23.34
2018-06-02T16:33:44.016Z,23.29
2018-06-02T16:36:12.103Z,23.30
2018-06-02T16:38:39.853Z,23.26
2018-06-02T16:41:07.434Z,23.14
2018-06-02T16:43:35.021Z,23.26
2018-06-02T16:46:02.659Z,23.35
2018-06-02T16:48:30.278Z,23.40
2018-06-02T16:50:57.876Z,23.27
2018-06-02T16:53:25.610Z,23.24
2018-06-02T16:55:53.192Z,23.21
2018-06-02T16:58:20.761Z,23.31
2018-06-02T17:00:48.346Z,23.28
2018-06-02T17:03:15.949Z,23.20
2018-06-02T17:05:43.675Z,23.17
2018-06-02T17:08:11.244Z,23.20
2018-06-02T17:10:38.969Z,23.15
2018-06-02T17:13:06.626Z,23.06
2018-06-02T17:15:34.878Z,23.05
2018-06-02T17:18:02.812Z,23.15
2018-06-02T17:20:30.508Z,23.21
2018-06-02T17:22:58.102Z,23.13
2018-06-02T17:25:25.687Z,23.11
2018-06-02T17:27:53.259Z,23.10
2018-06-02T17:30:20.835Z,23.12
2018-06-02T17:32:48.457Z,23.10
2018-06-02T17:35:16.044Z,23.07
2018-06-02T17:37:43.630Z,23.03
2018-06-02T17:40:11.261Z,22.99
2018-06-02T17:42:38.895Z,22.97
2018-06-02T17:45:06.503Z,23.02
2018-06-02T17:47:34.078Z,23.00
2018-06-02T17:50:01.666Z,23.09
2018-06-02T17:52:29.237Z,23.07
2018-06-02T17:54:56.810Z,23.07
2018-06-02T17:57:25.140Z,23.03
2018-06-02T17:59:52.726Z,23.02
2018-06-02T18:02:20.327Z,22.94
2018-06-02T18:04:47.930Z,22.83
2018-06-02T18:07:15.516Z,22.83
2018-06-02T18:09:43.180Z,22.78
2018-06-02T18:12:10.767Z,22.77
2018-06-02T18:14:38.361Z,22.74
2018-06-02T18:17:05.951Z,22.68
2018-06-02T18:19:33.533Z,22.69
2018-06-02T18:22:01.129Z,22.71
2018-06-02T18:24:28.729Z,22.63
2018-06-02T18:26:56.326Z,22.62
2018-06-02T18:29:23.930Z,22.54
2018-06-02T18:31:51.514Z,22.56
2018-06-02T18:34:19.103Z,22.54
2018-06-02T18:36:46.696Z,22.48
2018-06-02T18:39:14.282Z,22.48
2018-06-02T18:41:41.874Z,22.47
2018-06-02T18:44:09.482Z,22.45
2018-06-02T18:46:37.078Z,22.42
2018-06-02T18:49:04.671Z,22.44
2018-06-02T18:51:32.299Z,22.41
2018-06-02T18:53:59.866Z,22.33
2018-06-02T18:56:27.447Z,22.32
2018-06-02T18:58:55.031Z,22.31
2018-06-02T19:01:22.602Z,22.30
2018-06-02T19:03:50.176Z,22.26
2018-06-02T19:06:17.756Z,22.24
2018-06-02T19:08:45.346Z,22.27
2018-06-02T19:11:12.944Z,22.28
2018-06-02T19:13:40.545Z,22.27
2018-06-02T19:16:08.122Z,22.27
2018-06-02T19:18:35.687Z,22.27
2018-06-02T19:21:03.273Z,22.29
2018-06-02T19:23:30.860Z,22.29
2018-06-02T19:28:25.303Z,22.24
2018-06-02T19:30:52.886Z,22.20
2018-06-02T19:33:20.466Z,22.17
2018-06-02T19:35:48.065Z,22.22
2018-06-02T19:38:15.672Z,22.22
2018-06-02T19:40:43.246Z,22.18
2018-06-02T19:43:10.815Z,22.18
2018-06-02T19:45:38.378Z,22.15
2018-06-02T19:48:05.954Z,22.12
2018-06-02T19:50:33.554Z,21.96
2018-06-02T19:53:01.118Z,21.88
2018-06-02T19:55:28.686Z,21.83
2018-06-02T19:57:56.314Z,21.77
2018-06-02T20:00:23.874Z,21.79
2018-06-02T20:02:51.435Z,21.73
2018-06-02T20:05:19.014Z,21.59
2018-06-02T20:07:46.583Z,21.53
2018-06-02T20:10:14.163Z,21.46
2018-06-02T20:12:45.009Z,21.44
2018-06-02T20:15:12.600Z,21.37
2018-06-02T20:17:40.159Z,21.39
2018-06-02T20:20:07.734Z,21.32
2018-06-02T20:22:35.328Z,21.31
2018-06-02T20:25:02.926Z,21.29
2018-06-02T20:27:30.502Z,21.33
2018-06-02T20:29:58.068Z,21.27
2018-06-02T20:32:25.648Z,21.38
2018-06-02T20:34:53.225Z,21.31
2018-06-02T20:37:20.841Z,21.33
2018-06-02T20:39:48.406Z,21.25
2018-06-02T20:42:15.982Z,21.13
2018-06-02T20:44:43.552Z,21.19
2018-06-02T20:47:11.115Z,21.17
2018-06-02T20:49:38.741Z,21.14
2018-06-02T20:52:06.339Z,21.12
2018-06-02T20:54:33.946Z,20.76
2018-06-02T20:57:01.549Z,20.98
2018-06-02T20:59:29.158Z,20.83
2018-06-02T21:01:56.727Z,20.92
2018-06-02T21:04:24.352Z,20.91
2018-06-02T21:06:51.926Z,20.85
2018-06-02T21:09:19.522Z,20.68
2018-06-02T21:11:47.092Z,20.73
2018-06-02T21:14:14.762Z,20.65
2018-06-02T21:16:42.334Z,20.64
2018-06-02T21:19:09.914Z,20.64
2018-06-02T21:21:37.490Z,20.52
2018-06-02T21:24:05.082Z,20.50
2018-06-02T21:26:32.646Z,20.34
2018-06-02T21:29:00.231Z,20.18
2018-06-02T21:31:27.818Z,20.13
2018-06-02T21:33:55.423Z,19.93
2018-06-02T21:36:23.011Z,19.93
2018-06-02T21:38:50.598Z,19.83
2018-06-02T21:41:18.170Z,19.36
2018-06-02T21:43:45.762Z,19.43
2018-06-02T21:46:13.402Z,19.43
2018-06-02T21:48:40.939Z,19.59
2018-06-02T21:51:08.558Z,19.71
2018-06-02T21:53:36.127Z,19.73
2018-06-02T21:56:03.735Z,19.68
2018-06-02T21:58:31.316Z,19.77
2018-06-02T22:00:59.114Z,19.74
2018-06-02T22:03:26.740Z,19.67
2018-06-02T22:05:54.341Z,19.68
2018-06-02T22:08:22.310Z,19.65
2018-06-02T22:10:49.990Z,19.40
2018-06-02T22:13:17.627Z,19.54
2018-06-02T22:15:45.254Z,19.53
2018-06-02T22:18:12.846Z,19.55
2018-06-02T22:20:40.451Z,19.33
2018-06-02T22:23:08.031Z,19.07
2018-06-02T22:25:35.614Z,19.17
2018-06-02T22:28:03.221Z,19.01
2018-06-02T22:30:30.798Z,18.34
2018-06-02T22:32:58.398Z,18.70
2018-06-02T22:35:25.990Z,18.82
2018-06-02T22:37:53.562Z,18.79
2018-06-02T22:40:21.146Z,18.66
2018-06-02T22:42:48.795Z,18.62
2018-06-02T22:45:16.390Z,18.32
2018-06-02T22:47:43.982Z,18.51
2018-06-02T22:50:11.592Z,18.37
2018-06-02T22:52:39.235Z,18.34
2018-06-02T22:55:06.848Z,18.21
2018-06-02T22:57:34.486Z,17.78
2018-06-02T23:00:25.511Z,18.12
2018-06-02T23:02:53.109Z,18.21
2018-06-02T23:05:20.730Z,18.20
2018-06-02T23:07:48.369Z,18.19
2018-06-02T23:10:15.975Z,17.70
2018-06-02T23:12:43.571Z,17.79
2018-06-02T23:15:11.196Z,17.90
2018-06-02T23:17:38.780Z,17.90
2018-06-02T23:20:06.392Z,17.76
2018-06-02T23:22:39.878Z,17.81
2018-06-02T23:25:08.455Z,17.76
2018-06-02T23:27:36.092Z,17.47
2018-06-02T23:30:04.498Z,17.37
2018-06-02T23:32:32.103Z,17.43
2018-06-02T23:34:59.680Z,17.45
2018-06-02T23:37:27.282Z,17.30
2018-06-02T23:39:54.905Z,17.44
2018-06-02T23:42:22.502Z,17.39
2018-06-02T23:44:50.082Z,17.46
2018-06-02T23:47:17.679Z,17.61
2018-06-02T23:49:45.290Z,17.31
2018-06-02T23:52:12.883Z,17.32
2018-06-02T23:54:40.470Z,17.32
2018-06-02T23:57:08.060Z,17.16
2018-06-02T23:59:35.699Z,17.12
